Time;durP1;ratioP1;P1;durP2;ratioP2;P2;SDS_P1;SDS_P2;PMS_P1;PMS_P2;Temp;Humidity;BMP_temperature;BMP_pressure;BME280_temperature;BME280_humidity;BME280_pressure;Samples;Min_cycle;Max_cycle;Signal;HPM_P1;HPM_P2
2022/01/04 00:00:20;;;;;;;;;;;;;;;;;;2109899;28;1910;-74
2022/01/04 00:01:23;;;;;;;;;;;;;;;;;;2111377;28;1336;-74
2022/01/04 00:02:23;;;;;;;;;;;;;;;;;;2113860;28;1341;-74
2022/01/04 00:03:25;;;;;;;;;;;;;;;;;;2108714;28;1711;-74
2022/01/04 00:04:26;;;;;;;;;;;;;;;;;;2109701;28;1305;-74
2022/01/04 00:05:27;;;;;;;;;;;;;;;;;;2110587;28;1233;-73
2022/01/04 00:06:29;;;;;;;;;;;;;;;;;;2110868;28;1906;-74
2022/01/04 00:07:34;;;;;;;;;;;;;;;;;;2110125;28;1324;-74
2022/01/04 00:08:35;;;;;;;;;;;;;;;;;;2107150;28;1250;-74
2022/01/04 00:09:40;;;;;;;;;;;;;;;;;;2106278;28;1825;-74
2022/01/04 00:10:43;;;;;;;;;;;;;;;;;;2110346;28;1287;-74
2022/01/04 00:11:58;;;;;;;;;;;;;;;;;;2110294;28;1396;-74
2022/01/04 00:14:19;;;;;;;;;;;;;;;;;;2107846;28;1207;-73
2022/01/04 00:15:19;;;;;;;;;;;;;;;;;;2111146;28;2029;-74
2022/01/04 00:16:21;;;;;;;;;;;;;;;;;;2110236;28;1218;-75
2022/01/04 00:17:22;;;;;;;;;;;;;;;;;;2110289;28;1357;-73
2022/01/04 00:18:24;;;;;;;;;;;;;;;;;;2111839;28;1834;-73
2022/01/04 00:19:25;;;;;;;;;;;;;;;;;;2115676;28;752;-73
2022/01/04 00:20:26;;;;;;;;;;;;;;;;;;2115608;28;894;-73
2022/01/04 00:21:27;;;;;;;;;;;;;;;;;;2109564;28;1991;-73
2022/01/04 00:22:29;;;;;;;;;;;;;;;;;;2107206;28;953;-73
2022/01/04 00:23:31;;;;;;;;;;;;;;;;;;2106989;28;988;-73
2022/01/04 00:24:32;;;;;;;;;;;;;;;;;;2106927;28;1871;-73
2022/01/04 00:25:34;;;;;;;;;;;;;;;;;;2107192;28;1003;-73
2022/01/04 00:26:34;;;;;;;;;;;;;;;;;;2107042;28;1913;-73
2022/01/04 00:27:36;;;;;;;;;;;;;;;;;;2112297;28;2015;-73
2022/01/04 00:28:36;;;;;;;;;;;;;;;;;;2115511;28;820;-73
2022/01/04 00:29:38;;;;;;;;;;;;;;;;;;2115563;28;882;-73
2022/01/04 00:30:40;;;;;;;;;;;;;;;;;;2113953;28;2017;-73
2022/01/04 00:31:41;;;;;;;;;;;;;;;;;;2115625;28;1005;-73
2022/01/04 00:32:42;;;;;;;;;;;;;;;;;;2115584;28;1065;-73
2022/01/04 00:33:43;;;;;;;;;;;;;;;;;;2106721;28;1952;-73
2022/01/04 00:34:44;;;;;;;;;;;;;;;;;;2106524;28;930;-73
2022/01/04 00:35:46;;;;;;;;;;;;;;;;;;2107181;28;916;-73
2022/01/04 00:36:46;;;;;;;;;;;;;;;;;;2113577;28;1895;-73
2022/01/04 00:37:48;;;;;;;;;;;;;;;;;;2115517;28;909;-73
2022/01/04 00:38:51;;;;;;;;;;;;;;;;;;2115248;28;1883;-73
2022/01/04 00:39:52;;;;;;;;;;;;;;;;;;2107343;28;953;-74
2022/01/04 00:40:53;;;;;;;;;;;;;;;;;;2107082;28;914;-73
2022/01/04 00:41:54;;;;;;;;;;;;;;;;;;2106659;28;1987;-73
2022/01/04 00:42:58;;;;;;;;;;;;;;;;;;2107003;28;1082;-74
2022/01/04 00:43:58;;;;;;;;;;;;;;;;;;2107223;28;882;-73
2022/01/04 00:45:00;;;;;;;;;;;;;;;;;;2106161;28;2050;-74
2022/01/04 00:46:01;;;;;;;;;;;;;;;;;;2107001;28;953;-73
2022/01/04 00:47:02;;;;;;;;;;;;;;;;;;2107030;28;1902;-73
2022/01/04 00:49:23;;;;;;;;;;;;;;;;;;2115470;28;1012;-73
2022/01/04 00:50:24;;;;;;;;;;;;;;;;;;2115529;28;953;-73
2022/01/04 00:51:26;;;;;;;;;;;;;;;;;;2109706;28;1859;-73
2022/01/04 00:52:26;;;;;;;;;;;;;;;;;;2107057;28;1073;-73
2022/01/04 00:53:28;;;;;;;;;;;;;;;;;;2106978;28;894;-73
2022/01/04 00:54:30;;;;;;;;;;;;;;;;;;2106474;28;1891;-74
2022/01/04 00:55:31;;;;;;;;;;;;;;;;;;2106228;28;1037;-73
2022/01/04 00:56:33;;;;;;;;;;;;;;;;;;2106413;28;831;-73
2022/01/04 00:57:33;;;;;;;;;;;;;;;;;;2111691;28;1836;-73
2022/01/04 00:58:35;;;;;;;;;;;;;;;;;;2115527;28;794;-73
2022/01/04 00:59:35;;;;;;;;;;;;;;;;;;2115396;28;906;-73
2022/01/04 01:00:38;;;;;;;;;;;;;;;;;;2108217;28;1864;-73
2022/01/04 01:01:38;;;;;;;;;;;;;;;;;;2107115;28;978;-73
2022/01/04 01:02:40;;;;;;;;;;;;;;;;;;2107115;28;1123;-73
2022/01/04 01:03:41;;;;;;;;;;;;;;;;;;2112538;28;1915;-73
2022/01/04 01:04:44;;;;;;;;;;;;;;;;;;2115617;28;898;-73
2022/01/04 01:05:44;;;;;;;;;;;;;;;;;;2115537;28;882;-73
2022/01/04 01:06:46;;;;;;;;;;;;;;;;;;2107295;28;1906;-73
2022/01/04 01:07:47;;;;;;;;;;;;;;;;;;2107221;28;1148;-73
2022/01/04 01:08:48;;;;;;;;;;;;;;;;;;2107058;28;854;-73
2022/01/04 01:10:03;;;;;;;;;;;;;;;;;;2106887;28;2033;-73
2022/01/04 01:11:07;;;;;;;;;;;;;;;;;;2107986;28;910;-73
2022/01/04 01:12:09;;;;;;;;;;;;;;;;;;2107396;28;2077;-74
2022/01/04 01:13:11;;;;;;;;;;;;;;;;;;2108002;28;1299;-73
2022/01/04 01:14:12;;;;;;;;;;;;;;;;;;2108617;28;895;-73
2022/01/04 01:15:13;;;;;;;;;;;;;;;;;;2109045;28;1935;-73
2022/01/04 01:16:17;;;;;;;;;;;;;;;;;;2107878;28;931;-73
2022/01/04 01:17:17;;;;;;;;;;;;;;;;;;2108188;28;886;-73
2022/01/04 01:18:19;;;;;;;;;;;;;;;;;;2108608;28;945;-73
2022/01/04 01:19:20;;;;;;;;;;;;;;;;;;2108654;28;839;-73
2022/01/04 01:20:22;;;;;;;;;;;;;;;;;;2108525;28;807;-73
2022/01/04 01:21:24;;;;;;;;;;;;;;;;;;2108061;28;2146;-73
2022/01/04 01:22:24;;;;;;;;;;;;;;;;;;2108726;28;902;-73
2022/01/04 01:23:26;;;;;;;;;;;;;;;;;;2108519;28;945;-73
2022/01/04 01:24:26;;;;;;;;;;;;;;;;;;2112392;28;1890;-73
2022/01/04 01:25:29;;;;;;;;;;;;;;;;;;2116936;28;1085;-73
2022/01/04 01:26:31;;;;;;;;;;;;;;;;;;2117029;28;1914;-73
2022/01/04 01:27:31;;;;;;;;;;;;;;;;;;2110009;28;1853;-74
2022/01/04 01:28:33;;;;;;;;;;;;;;;;;;2107873;28;1430;-73
2022/01/04 01:29:33;;;;;;;;;;;;;;;;;;2108486;28;898;-73
2022/01/04 01:30:38;;;;;;;;;;;;;;;;;;2107895;28;929;-73
2022/01/04 01:31:39;;;;;;;;;;;;;;;;;;2108042;28;830;-73
2022/01/04 01:32:41;;;;;;;;;;;;;;;;;;2108688;28;989;-73
2022/01/04 01:33:42;;;;;;;;;;;;;;;;;;2108070;28;1977;-73
2022/01/04 01:34:43;;;;;;;;;;;;;;;;;;2108584;28;890;-73
2022/01/04 01:35:45;;;;;;;;;;;;;;;;;;2108530;28;1103;-73
2022/01/04 01:36:46;;;;;;;;;;;;;;;;;;2108466;28;817;-73
2022/01/04 01:37:47;;;;;;;;;;;;;;;;;;2108344;28;1096;-74
2022/01/04 01:38:49;;;;;;;;;;;;;;;;;;2107940;28;929;-73
2022/01/04 01:39:49;;;;;;;;;;;;;;;;;;2115656;28;1168;-73
2022/01/04 01:40:52;;;;;;;;;;;;;;;;;;2116920;28;857;-73
2022/01/04 01:41:53;;;;;;;;;;;;;;;;;;2115795;28;1828;-72
2022/01/04 01:42:55;;;;;;;;;;;;;;;;;;2116559;28;874;-73
2022/01/04 01:43:56;;;;;;;;;;;;;;;;;;2116133;28;1092;-72
2022/01/04 01:44:57;;;;;;;;;;;;;;;;;;2107714;28;1237;-73
2022/01/04 01:45:58;;;;;;;;;;;;;;;;;;2116151;28;810;-73
2022/01/04 01:46:59;;;;;;;;;;;;;;;;;;2116853;27;1902;-73
2022/01/04 01:48:01;;;;;;;;;;;;;;;;;;2114809;28;1939;-73
2022/01/04 01:49:02;;;;;;;;;;;;;;;;;;2108442;28;917;-73
2022/01/04 01:50:03;;;;;;;;;;;;;;;;;;2108352;28;940;-73
2022/01/04 01:51:05;;;;;;;;;;;;;;;;;;2107850;28;2031;-73
2022/01/04 01:52:06;;;;;;;;;;;;;;;;;;2108185;28;985;-73
2022/01/04 01:53:08;;;;;;;;;;;;;;;;;;2108674;28;969;-73
2022/01/04 01:54:09;;;;;;;;;;;;;;;;;;2108311;28;891;-73
2022/01/04 01:55:11;;;;;;;;;;;;;;;;;;2108226;28;1178;-73
2022/01/04 01:56:14;;;;;;;;;;;;;;;;;;2108373;28;818;-72
2022/01/04 01:57:14;;;;;;;;;;;;;;;;;;2107831;28;1847;-73
2022/01/04 01:58:16;;;;;;;;;;;;;;;;;;2108453;28;834;-73
2022/01/04 01:59:16;;;;;;;;;;;;;;;;;;2108305;28;834;-73
2022/01/04 02:00:20;;;;;;;;;;;;;;;;;;2107758;28;1906;-73
2022/01/04 02:01:22;;;;;;;;;;;;;;;;;;2108436;28;944;-73
2022/01/04 02:02:22;;;;;;;;;;;;;;;;;;2107586;28;1584;-73
2022/01/04 02:03:24;;;;;;;;;;;;;;;;;;2107778;28;819;-73
2022/01/04 02:04:25;;;;;;;;;;;;;;;;;;2108172;28;919;-73
2022/01/04 02:05:26;;;;;;;;;;;;;;;;;;2108363;28;827;-73
2022/01/04 02:06:29;;;;;;;;;;;;;;;;;;2108250;28;1061;-73
2022/01/04 02:07:31;;;;;;;;;;;;;;;;;;2107902;28;1955;-73
2022/01/04 02:08:33;;;;;;;;;;;;;;;;;;2107498;28;1232;-73
2022/01/04 02:09:36;;;;;;;;;;;;;;;;;;2107244;28;1908;-73
2022/01/04 02:10:39;;;;;;;;;;;;;;;;;;2108270;28;878;-74
2022/01/04 02:11:42;;;;;;;;;;;;;;;;;;2108261;28;896;-73
2022/01/04 02:12:46;;;;;;;;;;;;;;;;;;2108108;28;966;-73
2022/01/04 02:13:48;;;;;;;;;;;;;;;;;;2108241;28;830;-73
2022/01/04 02:14:49;;;;;;;;;;;;;;;;;;2108308;28;906;-73
2022/01/04 02:15:51;;;;;;;;;;;;;;;;;;2108614;28;921;-73
2022/01/04 02:16:51;;;;;;;;;;;;;;;;;;2107970;28;926;-73
2022/01/04 02:17:53;;;;;;;;;;;;;;;;;;2108112;28;902;-73
2022/01/04 02:18:58;;;;;;;;;;;;;;;;;;2108210;28;1170;-73
2022/01/04 02:20:01;;;;;;;;;;;;;;;;;;2108204;28;918;-74
2022/01/04 02:21:03;;;;;;;;;;;;;;;;;;2108134;28;950;-73
2022/01/04 02:22:04;;;;;;;;;;;;;;;;;;2107955;28;912;-73
2022/01/04 02:23:05;;;;;;;;;;;;;;;;;;2108030;28;930;-73
2022/01/04 02:24:06;;;;;;;;;;;;;;;;;;2107762;28;1900;-73
2022/01/04 02:25:08;;;;;;;;;;;;;;;;;;2107929;28;1096;-73
2022/01/04 02:26:09;;;;;;;;;;;;;;;;;;2108063;28;874;-73
2022/01/04 02:27:11;;;;;;;;;;;;;;;;;;2107918;28;1909;-73
2022/01/04 02:28:18;;;;;;;;;;;;;;;;;;2108142;28;949;-73
2022/01/04 02:29:18;;;;;;;;;;;;;;;;;;2108244;28;907;-73
2022/01/04 02:30:20;;;;;;;;;;;;;;;;;;2108052;28;2011;-73
2022/01/04 02:31:21;;;;;;;;;;;;;;;;;;2108017;28;890;-73
2022/01/04 02:32:22;;;;;;;;;;;;;;;;;;2108035;28;933;-73
2022/01/04 02:33:24;;;;;;;;;;;;;;;;;;2107922;28;890;-73
2022/01/04 02:34:24;;;;;;;;;;;;;;;;;;2108032;28;771;-73
2022/01/04 02:35:30;;;;;;;;;;;;;;;;;;2108019;28;945;-73
2022/01/04 02:36:31;;;;;;;;;;;;;;;;;;2107762;28;1915;-73
2022/01/04 02:37:33;;;;;;;;;;;;;;;;;;2108031;28;847;-73
2022/01/04 02:38:33;;;;;;;;;;;;;;;;;;2108075;28;1009;-73
2022/01/04 02:39:35;;;;;;;;;;;;;;;;;;2107376;28;1953;-73
2022/01/04 02:40:37;;;;;;;;;;;;;;;;;;2108130;28;985;-73
2022/01/04 02:41:37;;;;;;;;;;;;;;;;;;2107929;28;878;-73
2022/01/04 02:42:39;;;;;;;;;;;;;;;;;;2107304;28;1836;-73
2022/01/04 02:43:40;;;;;;;;;;;;;;;;;;2108054;28;944;-73
2022/01/04 02:44:41;;;;;;;;;;;;;;;;;;2107981;28;893;-74
2022/01/04 02:45:43;;;;;;;;;;;;;;;;;;2113978;28;1962;-73
2022/01/04 02:46:43;;;;;;;;;;;;;;;;;;2116314;28;890;-72
2022/01/04 02:47:45;;;;;;;;;;;;;;;;;;2115668;28;1977;-73
2022/01/04 02:48:46;;;;;;;;;;;;;;;;;;2107033;28;1833;-72
2022/01/04 02:49:47;;;;;;;;;;;;;;;;;;2107743;28;902;-73
2022/01/04 02:50:50;;;;;;;;;;;;;;;;;;2107910;28;969;-73
2022/01/04 02:51:52;;;;;;;;;;;;;;;;;;2107827;28;882;-73
2022/01/04 02:52:53;;;;;;;;;;;;;;;;;;2107140;28;942;-73
2022/01/04 02:53:54;;;;;;;;;;;;;;;;;;2106864;28;2121;-73
2022/01/04 02:54:55;;;;;;;;;;;;;;;;;;2107554;28;1347;-73
2022/01/04 02:55:56;;;;;;;;;;;;;;;;;;2108033;28;950;-73
2022/01/04 02:56:57;;;;;;;;;;;;;;;;;;2107087;28;1891;-73
2022/01/04 02:57:58;;;;;;;;;;;;;;;;;;2107830;28;1309;-73
2022/01/04 02:59:03;;;;;;;;;;;;;;;;;;2107800;28;867;-73
2022/01/04 03:00:05;;;;;;;;;;;;;;;;;;2107658;28;1890;-73
2022/01/04 03:01:07;;;;;;;;;;;;;;;;;;2107769;28;957;-73
2022/01/04 03:02:07;;;;;;;;;;;;;;;;;;2107148;28;883;-73
2022/01/04 03:03:09;;;;;;;;;;;;;;;;;;2108974;28;1928;-73
2022/01/04 03:04:10;;;;;;;;;;;;;;;;;;2107800;28;943;-73
2022/01/04 03:05:12;;;;;;;;;;;;;;;;;;2107781;28;1036;-73
2022/01/04 03:06:14;;;;;;;;;;;;;;;;;;2107193;28;1832;-73
2022/01/04 03:07:16;;;;;;;;;;;;;;;;;;2107530;28;1961;-73
2022/01/04 03:08:16;;;;;;;;;;;;;;;;;;2107880;28;940;-73
2022/01/04 03:09:18;;;;;;;;;;;;;;;;;;2107706;28;949;-73
2022/01/04 03:10:20;;;;;;;;;;;;;;;;;;2107733;28;846;-72
2022/01/04 03:11:21;;;;;;;;;;;;;;;;;;2107753;28;890;-72
2022/01/04 03:12:23;;;;;;;;;;;;;;;;;;2107395;28;1832;-72
2022/01/04 03:13:23;;;;;;;;;;;;;;;;;;2107726;28;899;-73
2022/01/04 03:14:25;;;;;;;;;;;;;;;;;;2107579;28;930;-73
2022/01/04 03:15:25;;;;;;;;;;;;;;;;;;2107207;28;2191;-72
2022/01/04 03:16:27;;;;;;;;;;;;;;;;;;2107704;28;895;-72
2022/01/04 03:17:28;;;;;;;;;;;;;;;;;;2107612;28;883;-72
2022/01/04 03:18:29;;;;;;;;;;;;;;;;;;2107153;28;1840;-73
2022/01/04 03:19:30;;;;;;;;;;;;;;;;;;2107710;28;938;-73
2022/01/04 03:20:31;;;;;;;;;;;;;;;;;;2107774;28;1306;-73
2022/01/04 03:21:34;;;;;;;;;;;;;;;;;;2107024;28;1737;-72
2022/01/04 03:22:36;;;;;;;;;;;;;;;;;;2107765;28;807;-73
2022/01/04 03:23:36;;;;;;;;;;;;;;;;;;2107668;28;878;-73
2022/01/04 03:24:38;;;;;;;;;;;;;;;;;;2107169;28;1904;-72
2022/01/04 03:25:40;;;;;;;;;;;;;;;;;;2107622;28;1015;-72
2022/01/04 03:26:42;;;;;;;;;;;;;;;;;;2107679;28;831;-73
2022/01/04 03:27:43;;;;;;;;;;;;;;;;;;2106985;28;1969;-72
2022/01/04 03:28:44;;;;;;;;;;;;;;;;;;2107714;28;862;-72
2022/01/04 03:29:45;;;;;;;;;;;;;;;;;;2107445;28;1068;-73
2022/01/04 03:30:47;;;;;;;;;;;;;;;;;;2106942;28;2107;-72
2022/01/04 03:31:47;;;;;;;;;;;;;;;;;;2107457;28;934;-72
2022/01/04 03:32:49;;;;;;;;;;;;;;;;;;2107705;28;952;-72
2022/01/04 03:33:49;;;;;;;;;;;;;;;;;;2106759;28;1081;-72
2022/01/04 03:34:51;;;;;;;;;;;;;;;;;;2107623;28;893;-73
2022/01/04 03:35:51;;;;;;;;;;;;;;;;;;2107521;28;878;-72
2022/01/04 03:36:54;;;;;;;;;;;;;;;;;;2107752;28;787;-72
2022/01/04 03:37:55;;;;;;;;;;;;;;;;;;2107353;28;1050;-72
2022/01/04 03:38:57;;;;;;;;;;;;;;;;;;2106876;28;2059;-71
2022/01/04 03:39:58;;;;;;;;;;;;;;;;;;2107503;28;1367;-73
2022/01/04 03:40:59;;;;;;;;;;;;;;;;;;2107508;28;1425;-72
2022/01/04 03:42:00;;;;;;;;;;;;;;;;;;2107087;28;1844;-74
2022/01/04 03:43:01;;;;;;;;;;;;;;;;;;2107519;28;910;-73
2022/01/04 03:44:03;;;;;;;;;;;;;;;;;;2107508;28;977;-73
2022/01/04 03:45:04;;;;;;;;;;;;;;;;;;2107074;28;1980;-72
2022/01/04 03:46:05;;;;;;;;;;;;;;;;;;2107308;28;953;-72
2022/01/04 03:47:07;;;;;;;;;;;;;;;;;;2107437;28;1024;-73
2022/01/04 03:48:08;;;;;;;;;;;;;;;;;;2106900;28;2071;-73
2022/01/04 03:49:09;;;;;;;;;;;;;;;;;;2107421;28;866;-73
2022/01/04 03:50:10;;;;;;;;;;;;;;;;;;2107565;28;991;-73
2022/01/04 03:51:12;;;;;;;;;;;;;;;;;;2106955;28;2011;-73
2022/01/04 03:52:15;;;;;;;;;;;;;;;;;;2107604;28;842;-73
2022/01/04 03:53:16;;;;;;;;;;;;;;;;;;2107271;28;958;-72
2022/01/04 03:54:19;;;;;;;;;;;;;;;;;;2107456;28;1112;-73
2022/01/04 03:55:20;;;;;;;;;;;;;;;;;;2107036;28;1159;-73
2022/01/04 03:56:21;;;;;;;;;;;;;;;;;;2107488;28;795;-73
2022/01/04 03:57:22;;;;;;;;;;;;;;;;;;2106980;28;1969;-73
2022/01/04 03:58:23;;;;;;;;;;;;;;;;;;2107331;28;1065;-73
2022/01/04 03:59:24;;;;;;;;;;;;;;;;;;2107391;28;894;-73
2022/01/04 04:00:25;;;;;;;;;;;;;;;;;;2107080;28;1895;-73
2022/01/04 04:01:26;;;;;;;;;;;;;;;;;;2107098;28;907;-72
2022/01/04 04:02:27;;;;;;;;;;;;;;;;;;2107436;28;1136;-73
2022/01/04 04:03:28;;;;;;;;;;;;;;;;;;2107348;28;1816;-73
2022/01/04 04:04:30;;;;;;;;;;;;;;;;;;2107402;28;1059;-72
2022/01/04 04:05:30;;;;;;;;;;;;;;;;;;2106739;28;1186;-73
2022/01/04 04:06:32;;;;;;;;;;;;;;;;;;2106533;28;1967;-72
2022/01/04 04:07:33;;;;;;;;;;;;;;;;;;2107222;28;1906;-72
2022/01/04 04:08:35;;;;;;;;;;;;;;;;;;2107299;28;922;-73
2022/01/04 04:09:36;;;;;;;;;;;;;;;;;;2106705;28;2090;-73
2022/01/04 04:10:38;;;;;;;;;;;;;;;;;;2107374;28;799;-73
2022/01/04 04:11:38;;;;;;;;;;;;;;;;;;2107241;28;899;-73
2022/01/04 04:12:40;;;;;;;;;;;;;;;;;;2112876;28;1852;-73
2022/01/04 04:13:40;;;;;;;;;;;;;;;;;;2115572;28;1073;-72
2022/01/04 04:14:42;;;;;;;;;;;;;;;;;;2115840;28;917;-73
2022/01/04 04:15:44;;;;;;;;;;;;;;;;;;2114154;28;1895;-73
2022/01/04 04:16:45;;;;;;;;;;;;;;;;;;2115569;28;866;-72
2022/01/04 04:17:46;;;;;;;;;;;;;;;;;;2115576;28;862;-72
2022/01/04 04:18:48;;;;;;;;;;;;;;;;;;2114303;28;1902;-73
2022/01/04 04:19:49;;;;;;;;;;;;;;;;;;2115545;28;798;-72
2022/01/04 04:20:50;;;;;;;;;;;;;;;;;;2115043;28;2012;-72
2022/01/04 04:21:51;;;;;;;;;;;;;;;;;;2107033;28;1036;-73
2022/01/04 04:22:53;;;;;;;;;;;;;;;;;;2107314;28;1006;-73
2022/01/04 04:23:55;;;;;;;;;;;;;;;;;;2107282;28;1033;-73
2022/01/04 04:24:55;;;;;;;;;;;;;;;;;;2107028;28;1092;-73
2022/01/04 04:25:57;;;;;;;;;;;;;;;;;;2106400;28;1616;-73
2022/01/04 04:26:57;;;;;;;;;;;;;;;;;;2106671;28;1886;-73
2022/01/04 04:28:00;;;;;;;;;;;;;;;;;;2107052;28;1955;-73
2022/01/04 04:29:00;;;;;;;;;;;;;;;;;;2107225;28;910;-73
2022/01/04 04:30:02;;;;;;;;;;;;;;;;;;2108056;27;1935;-73
2022/01/04 04:31:05;;;;;;;;;;;;;;;;;;2115079;28;870;-73
2022/01/04 04:32:06;;;;;;;;;;;;;;;;;;2106925;28;966;-73
2022/01/04 04:33:08;;;;;;;;;;;;;;;;;;2114822;28;1225;-73
2022/01/04 04:34:09;;;;;;;;;;;;;;;;;;2114791;28;886;-73
2022/01/04 04:35:10;;;;;;;;;;;;;;;;;;2107167;28;796;-72
2022/01/04 04:36:12;;;;;;;;;;;;;;;;;;2106710;28;1915;-72
2022/01/04 04:37:12;;;;;;;;;;;;;;;;;;2107252;28;889;-72
2022/01/04 04:38:15;;;;;;;;;;;;;;;;;;2107171;28;1124;-72
2022/01/04 04:39:16;;;;;;;;;;;;;;;;;;2106702;28;1918;-73
2022/01/04 04:40:17;;;;;;;;;;;;;;;;;;2107141;28;1102;-73
2022/01/04 04:41:19;;;;;;;;;;;;;;;;;;2107014;28;890;-72
2022/01/04 04:42:19;;;;;;;;;;;;;;;;;;2106656;28;1736;-73
2022/01/04 04:43:21;;;;;;;;;;;;;;;;;;2107018;28;1183;-73
2022/01/04 04:44:21;;;;;;;;;;;;;;;;;;2107259;28;847;-72
2022/01/04 04:45:23;;;;;;;;;;;;;;;;;;2110720;28;1824;-73
2022/01/04 04:46:24;;;;;;;;;;;;;;;;;;2115593;28;1077;-73
2022/01/04 04:47:25;;;;;;;;;;;;;;;;;;2115462;28;878;-72
2022/01/04 04:48:27;;;;;;;;;;;;;;;;;;2108860;28;1938;-73
2022/01/04 04:49:28;;;;;;;;;;;;;;;;;;2106365;28;870;-73
2022/01/04 04:50:31;;;;;;;;;;;;;;;;;;2107227;28;1144;-72
2022/01/04 04:51:31;;;;;;;;;;;;;;;;;;2106518;28;1844;-72
2022/01/04 04:52:33;;;;;;;;;;;;;;;;;;2106284;28;1100;-73
2022/01/04 04:53:36;;;;;;;;;;;;;;;;;;2106388;28;952;-73
2022/01/04 04:54:36;;;;;;;;;;;;;;;;;;2112775;28;2007;-72
2022/01/04 04:55:38;;;;;;;;;;;;;;;;;;2114560;28;858;-72
2022/01/04 04:56:39;;;;;;;;;;;;;;;;;;2114777;28;1012;-73
2022/01/04 04:57:41;;;;;;;;;;;;;;;;;;2107741;28;1844;-72
2022/01/04 04:58:42;;;;;;;;;;;;;;;;;;2106466;28;792;-73
2022/01/04 04:59:43;;;;;;;;;;;;;;;;;;2106483;28;823;-73
2022/01/04 05:00:44;;;;;;;;;;;;;;;;;;2106641;28;1899;-73
2022/01/04 05:01:45;;;;;;;;;;;;;;;;;;2106950;28;1069;-73
2022/01/04 05:02:47;;;;;;;;;;;;;;;;;;2107175;28;953;-73
2022/01/04 05:03:51;;;;;;;;;;;;;;;;;;2114194;28;1804;-72
2022/01/04 05:04:53;;;;;;;;;;;;;;;;;;2114769;28;924;-72
2022/01/04 05:05:53;;;;;;;;;;;;;;;;;;2113830;28;1889;-72
2022/01/04 05:06:56;;;;;;;;;;;;;;;;;;2107070;28;1179;-72
2022/01/04 05:07:57;;;;;;;;;;;;;;;;;;2106760;28;1981;-72
2022/01/04 05:08:59;;;;;;;;;;;;;;;;;;2106643;28;2123;-72
2022/01/04 05:10:01;;;;;;;;;;;;;;;;;;2107004;28;1124;-72
2022/01/04 05:11:02;;;;;;;;;;;;;;;;;;2106960;28;957;-71
2022/01/04 05:12:05;;;;;;;;;;;;;;;;;;2106366;28;2011;-71
2022/01/04 05:13:07;;;;;;;;;;;;;;;;;;2106939;28;885;-72
2022/01/04 05:14:07;;;;;;;;;;;;;;;;;;2106890;28;945;-72
2022/01/04 05:15:09;;;;;;;;;;;;;;;;;;2106859;28;1231;-72
2022/01/04 05:16:10;;;;;;;;;;;;;;;;;;2106934;28;803;-72
2022/01/04 05:17:11;;;;;;;;;;;;;;;;;;2106953;28;1120;-72
2022/01/04 05:18:13;;;;;;;;;;;;;;;;;;2106392;28;1943;-71
2022/01/04 05:19:14;;;;;;;;;;;;;;;;;;2107018;28;931;-72
2022/01/04 05:20:16;;;;;;;;;;;;;;;;;;2106839;28;949;-72
2022/01/04 05:21:16;;;;;;;;;;;;;;;;;;2106881;28;945;-72
2022/01/04 05:22:18;;;;;;;;;;;;;;;;;;2106882;28;1017;-71
2022/01/04 05:23:18;;;;;;;;;;;;;;;;;;2107056;28;973;-71
2022/01/04 05:24:21;;;;;;;;;;;;;;;;;;2110114;28;2002;-71
2022/01/04 05:25:23;;;;;;;;;;;;;;;;;;2115577;28;1012;-71
2022/01/04 05:26:23;;;;;;;;;;;;;;;;;;2115330;28;875;-71
2022/01/04 05:27:25;;;;;;;;;;;;;;;;;;2115319;28;977;-72
2022/01/04 05:28:25;;;;;;;;;;;;;;;;;;2115282;28;1901;-72
2022/01/04 05:29:27;;;;;;;;;;;;;;;;;;2115376;28;1170;-72
2022/01/04 05:30:27;;;;;;;;;;;;;;;;;;2113770;28;1856;-72
2022/01/04 05:31:29;;;;;;;;;;;;;;;;;;2115417;28;807;-71
2022/01/04 05:32:30;;;;;;;;;;;;;;;;;;2115297;28;1089;-72
2022/01/04 05:33:31;;;;;;;;;;;;;;;;;;2109040;28;1852;-72
2022/01/04 05:34:32;;;;;;;;;;;;;;;;;;2106844;28;862;-72
2022/01/04 05:35:33;;;;;;;;;;;;;;;;;;2106721;28;1050;-71
2022/01/04 05:36:35;;;;;;;;;;;;;;;;;;2106982;28;905;-72
2022/01/04 05:37:36;;;;;;;;;;;;;;;;;;2106863;28;1069;-71
2022/01/04 05:38:37;;;;;;;;;;;;;;;;;;2106879;28;1018;-71
2022/01/04 05:39:40;;;;;;;;;;;;;;;;;;2112233;28;1776;-72
2022/01/04 05:40:40;;;;;;;;;;;;;;;;;;2115149;28;1103;-71
2022/01/04 05:41:42;;;;;;;;;;;;;;;;;;2115118;28;926;-71
2022/01/04 05:42:42;;;;;;;;;;;;;;;;;;2107325;28;2133;-71
2022/01/04 05:43:45;;;;;;;;;;;;;;;;;;2106712;28;1243;-71
2022/01/04 05:44:45;;;;;;;;;;;;;;;;;;2109732;28;1172;-71
2022/01/04 05:45:47;;;;;;;;;;;;;;;;;;2111682;28;1298;-71
2022/01/04 05:46:47;;;;;;;;;;;;;;;;;;2109913;28;1302;-72
2022/01/04 05:47:49;;;;;;;;;;;;;;;;;;2111434;28;1332;-71
2022/01/04 05:48:50;;;;;;;;;;;;;;;;;;2110024;28;1965;-71
2022/01/04 05:49:52;;;;;;;;;;;;;;;;;;2111045;28;1270;-71
2022/01/04 05:50:53;;;;;;;;;;;;;;;;;;2110780;28;1601;-71
2022/01/04 05:51:55;;;;;;;;;;;;;;;;;;2110572;28;1289;-71
2022/01/04 05:52:57;;;;;;;;;;;;;;;;;;2110949;28;1325;-72
2022/01/04 05:53:57;;;;;;;;;;;;;;;;;;2110344;28;1855;-71
2022/01/04 05:55:01;;;;;;;;;;;;;;;;;;2109850;28;1288;-71
2022/01/04 05:56:01;;;;;;;;;;;;;;;;;;2111626;28;1314;-71
2022/01/04 05:57:03;;;;;;;;;;;;;;;;;;2109773;28;1724;-71
2022/01/04 05:58:03;;;;;;;;;;;;;;;;;;2110804;28;1207;-71
2022/01/04 05:59:05;;;;;;;;;;;;;;;;;;2113715;28;1242;-71
2022/01/04 06:00:06;;;;;;;;;;;;;;;;;;2110988;28;1526;-71
2022/01/04 06:01:10;;;;;;;;;;;;;;;;;;2112796;28;1235;-71
2022/01/04 06:02:10;;;;;;;;;;;;;;;;;;2111671;28;1311;-71
2022/01/04 06:03:12;;;;;;;;;;;;;;;;;;2111095;28;1811;-72
2022/01/04 06:04:14;;;;;;;;;;;;;;;;;;2112214;28;1230;-71
2022/01/04 06:05:14;;;;;;;;;;;;;;;;;;2112311;28;1322;-71
2022/01/04 06:06:16;;;;;;;;;;;;;;;;;;2111911;28;1342;-71
2022/01/04 06:07:16;;;;;;;;;;;;;;;;;;2112570;28;1357;-71
2022/01/04 06:08:19;;;;;;;;;;;;;;;;;;2111752;28;1362;-71
2022/01/04 06:09:25;;;;;;;;;;;;;;;;;;2112440;28;1971;-71
2022/01/04 06:10:27;;;;;;;;;;;;;;;;;;2116492;28;864;-71
2022/01/04 06:11:45;;;;;;;;;;;;;;;;;;2116060;28;1477;-70
2022/01/04 06:15:24;;;;;;;;;;;;;;;;;;2111921;28;1834;-71
2022/01/04 06:16:25;;;;;;;;;;;;;;;;;;2110625;28;1290;-70
2022/01/04 06:17:26;;;;;;;;;;;;;;;;;;2116022;28;1322;-71
2022/01/04 06:18:28;;;;;;;;;;;;;;;;;;2109951;28;1924;-71
2022/01/04 06:19:29;;;;;;;;;;;;;;;;;;2107458;28;783;-71
2022/01/04 06:20:30;;;;;;;;;;;;;;;;;;2106874;28;825;-71
2022/01/04 06:21:32;;;;;;;;;;;;;;;;;;2106656;28;1959;-70
2022/01/04 06:22:32;;;;;;;;;;;;;;;;;;2107741;28;1143;-70
2022/01/04 06:23:34;;;;;;;;;;;;;;;;;;2108017;28;925;-71
2022/01/04 06:24:36;;;;;;;;;;;;;;;;;;2107461;28;1923;-71
2022/01/04 06:25:39;;;;;;;;;;;;;;;;;;2108038;28;937;-70
2022/01/04 06:26:39;;;;;;;;;;;;;;;;;;2107935;28;902;-70
2022/01/04 06:27:42;;;;;;;;;;;;;;;;;;2107243;28;2130;-70
2022/01/04 06:28:44;;;;;;;;;;;;;;;;;;2107562;28;1910;-70
2022/01/04 06:29:44;;;;;;;;;;;;;;;;;;2107972;28;858;-71
2022/01/04 06:30:46;;;;;;;;;;;;;;;;;;2114363;28;2021;-71
2022/01/04 06:31:47;;;;;;;;;;;;;;;;;;2116366;28;1039;-71
2022/01/04 06:32:48;;;;;;;;;;;;;;;;;;2116305;28;890;-71
2022/01/04 06:33:49;;;;;;;;;;;;;;;;;;2115413;28;2330;-71
2022/01/04 06:34:51;;;;;;;;;;;;;;;;;;2116260;28;1104;-71
2022/01/04 06:35:51;;;;;;;;;;;;;;;;;;2115360;28;1844;-70
2022/01/04 06:36:53;;;;;;;;;;;;;;;;;;2115535;28;882;-71
2022/01/04 06:37:53;;;;;;;;;;;;;;;;;;2116022;28;851;-70
2022/01/04 06:38:55;;;;;;;;;;;;;;;;;;2115237;28;2063;-70
2022/01/04 06:39:56;;;;;;;;;;;;;;;;;;2107763;28;887;-71
2022/01/04 06:40:58;;;;;;;;;;;;;;;;;;2107765;28;890;-71
2022/01/04 06:41:59;;;;;;;;;;;;;;;;;;2107291;28;1911;-70
2022/01/04 06:43:01;;;;;;;;;;;;;;;;;;2107843;28;938;-71
2022/01/04 06:44:01;;;;;;;;;;;;;;;;;;2107855;28;776;-71
2022/01/04 06:45:03;;;;;;;;;;;;;;;;;;2107275;28;2067;-70
2022/01/04 06:46:04;;;;;;;;;;;;;;;;;;2107744;28;831;-71
2022/01/04 06:47:05;;;;;;;;;;;;;;;;;;2106833;28;1566;-71
2022/01/04 06:48:06;;;;;;;;;;;;;;;;;;2106719;28;1908;-71
2022/01/04 06:49:07;;;;;;;;;;;;;;;;;;2107866;28;1902;-71
2022/01/04 06:50:08;;;;;;;;;;;;;;;;;;2107508;28;831;-71
2022/01/04 06:51:10;;;;;;;;;;;;;;;;;;2107227;28;2091;-70
2022/01/04 06:52:10;;;;;;;;;;;;;;;;;;2107629;28;916;-70
2022/01/04 06:53:12;;;;;;;;;;;;;;;;;;2107628;28;1065;-71
2022/01/04 06:54:13;;;;;;;;;;;;;;;;;;2107287;28;1901;-71
2022/01/04 06:55:15;;;;;;;;;;;;;;;;;;2107542;28;1175;-71
2022/01/04 06:56:17;;;;;;;;;;;;;;;;;;2107413;28;899;-71
2022/01/04 06:57:19;;;;;;;;;;;;;;;;;;2107227;28;2076;-71
2022/01/04 06:58:19;;;;;;;;;;;;;;;;;;2107575;28;882;-70
2022/01/04 06:59:21;;;;;;;;;;;;;;;;;;2107653;28;937;-71
2022/01/04 07:00:21;;;;;;;;;;;;;;;;;;2106382;28;1920;-71
2022/01/04 07:01:23;;;;;;;;;;;;;;;;;;2107034;28;1288;-71
2022/01/04 07:02:23;;;;;;;;;;;;;;;;;;2107671;28;1120;-71
2022/01/04 07:03:25;;;;;;;;;;;;;;;;;;2106366;28;1972;-70
2022/01/04 07:04:26;;;;;;;;;;;;;;;;;;2106970;28;831;-71
2022/01/04 07:05:28;;;;;;;;;;;;;;;;;;2107490;28;870;-71
2022/01/04 07:06:29;;;;;;;;;;;;;;;;;;2106976;28;1880;-70
2022/01/04 07:07:31;;;;;;;;;;;;;;;;;;2107683;28;997;-71
2022/01/04 07:08:31;;;;;;;;;;;;;;;;;;2106370;28;822;-71
2022/01/04 07:09:33;;;;;;;;;;;;;;;;;;2106995;28;1969;-71
2022/01/04 07:10:33;;;;;;;;;;;;;;;;;;2107467;28;942;-71
2022/01/04 07:11:37;;;;;;;;;;;;;;;;;;2107591;28;1096;-70
2022/01/04 07:12:38;;;;;;;;;;;;;;;;;;2106286;28;1976;-70
2022/01/04 07:13:39;;;;;;;;;;;;;;;;;;2106949;28;905;-71
2022/01/04 07:14:40;;;;;;;;;;;;;;;;;;2107452;28;767;-70
2022/01/04 07:15:41;;;;;;;;;;;;;;;;;;2113515;28;2181;-70